createdAt,value
2018-04-25T04:00:27.012Z,21.10
2018-04-25T04:02:53.227Z,21.10
2018-04-25T04:05:19.477Z,21.10
2018-04-25T04:07:45.701Z,21.10
2018-04-25T04:10:11.917Z,21.10
2018-04-25T04:12:38.140Z,21.10
2018-04-25T04:15:04.392Z,21.10
2018-04-25T04:17:30.816Z,21.20
2018-04-25T04:19:57.237Z,21.00
2018-04-25T04:22:24.220Z,19.90
2018-04-25T04:24:50.538Z,19.90
2018-04-25T04:27:16.736Z,19.80
2018-04-25T04:29:42.996Z,19.60
2018-04-25T04:32:10.011Z,19.40
2018-04-25T04:34:36.234Z,19.30
2018-04-25T04:37:02.453Z,19.30
2018-04-25T04:39:28.694Z,19.30
2018-04-25T04:41:54.964Z,19.30
2018-04-25T04:44:21.199Z,19.50
2018-04-25T04:46:47.431Z,19.70
2018-04-25T04:49:13.688Z,20.00
2018-04-25T04:51:39.928Z,20.10
2018-04-25T04:54:06.177Z,20.20
2018-04-25T04:56:32.448Z,20.30
2018-04-25T04:58:58.661Z,20.30
2018-04-25T05:01:24.899Z,20.30
2018-04-25T05:03:51.114Z,20.30
2018-04-25T05:06:17.667Z,20.30
2018-04-25T05:08:43.973Z,20.30
2018-04-25T05:11:10.330Z,20.30
2018-04-25T05:13:36.672Z,20.30
2018-04-25T05:16:02.902Z,20.30
2018-04-25T05:18:29.153Z,20.30
2018-04-25T05:20:55.380Z,20.30
2018-04-25T05:23:21.613Z,20.30
2018-04-25T05:25:48.577Z,20.30
2018-04-25T05:28:14.856Z,20.30
2018-04-25T05:30:41.100Z,20.20
2018-04-25T05:33:07.395Z,20.20
2018-04-25T05:35:33.631Z,20.30
2018-04-25T05:38:00.590Z,20.20
2018-04-25T05:40:26.856Z,20.20
2018-04-25T05:42:53.117Z,20.20
2018-04-25T05:45:19.879Z,20.20
2018-04-25T05:47:46.125Z,20.20
2018-04-25T05:50:12.339Z,20.20
2018-04-25T05:52:38.569Z,20.20
2018-04-25T05:55:04.832Z,20.20
2018-04-25T05:57:31.066Z,20.20
2018-04-25T05:59:57.304Z,20.20
2018-04-25T06:02:23.531Z,20.20
2018-04-25T06:04:49.760Z,20.20
2018-04-25T06:07:16.023Z,20.20
2018-04-25T06:09:42.991Z,20.20
2018-04-25T06:12:09.211Z,20.20
2018-04-25T06:14:35.448Z,20.20
2018-04-25T06:17:01.681Z,20.20
2018-04-25T06:19:27.947Z,20.20
2018-04-25T06:21:54.186Z,20.20
2018-04-25T06:24:21.176Z,20.20
2018-04-25T06:26:47.410Z,20.20
2018-04-25T06:29:13.639Z,20.20
2018-04-25T06:31:39.893Z,20.20
2018-04-25T06:34:06.109Z,20.20
2018-04-25T06:36:32.349Z,20.10
2018-04-25T06:38:58.596Z,20.20
2018-04-25T06:41:24.802Z,20.10
2018-04-25T06:43:51.041Z,20.20
2018-04-25T06:46:17.300Z,20.20
2018-04-25T06:48:43.705Z,20.20
2018-04-25T06:51:09.938Z,20.10
2018-04-25T06:53:36.175Z,20.10
2018-04-25T06:56:02.434Z,20.10
2018-04-25T06:58:28.664Z,20.10
2018-04-25T07:00:55.494Z,20.20
2018-04-25T07:03:21.721Z,20.20
2018-04-25T07:05:47.967Z,20.20
2018-04-25T07:08:14.248Z,20.20
2018-04-25T07:10:40.513Z,20.10
2018-04-25T07:13:06.722Z,20.10
2018-04-25T07:15:32.967Z,20.10
2018-04-25T07:17:59.184Z,20.20
2018-04-25T07:20:25.430Z,20.20
2018-04-25T07:22:51.664Z,20.20
2018-04-25T07:25:17.907Z,20.10
2018-04-25T07:27:44.143Z,20.20
2018-04-25T07:30:11.153Z,20.20
2018-04-25T07:32:37.410Z,20.20
2018-04-25T07:35:03.622Z,20.20
2018-04-25T07:37:29.857Z,20.20
2018-04-25T07:39:56.069Z,20.20
2018-04-25T07:42:22.300Z,20.20
2018-04-25T07:44:48.561Z,20.20
2018-04-25T07:47:14.777Z,20.20
2018-04-25T07:49:40.995Z,20.20
2018-04-25T07:52:07.257Z,20.30
2018-04-25T07:54:33.477Z,20.20
2018-04-25T07:56:59.729Z,20.30
2018-04-25T07:59:25.987Z,20.20
2018-04-25T08:01:52.221Z,20.20
2018-04-25T08:04:19.202Z,20.20
2018-04-25T08:06:46.200Z,20.20
2018-04-25T08:09:12.505Z,20.20
2018-04-25T08:11:38.745Z,20.20
2018-04-25T08:14:04.988Z,20.20
2018-04-25T08:16:31.239Z,20.20
2018-04-25T08:18:57.453Z,20.20
2018-04-25T08:21:23.691Z,20.20
2018-04-25T08:23:49.955Z,20.20
2018-04-25T08:26:16.208Z,20.10
2018-04-25T08:28:42.434Z,20.10
2018-04-25T08:31:08.656Z,20.10
2018-04-25T08:33:34.908Z,20.20
2018-04-25T08:36:01.160Z,20.10
2018-04-25T08:38:27.427Z,20.10
2018-04-25T08:40:53.660Z,20.10
2018-04-25T08:43:20.668Z,20.10
2018-04-25T08:45:46.903Z,20.10
2018-04-25T08:48:13.116Z,20.10
2018-04-25T08:50:39.375Z,20.10
2018-04-25T08:53:05.616Z,20.10
2018-04-25T08:55:31.852Z,20.10
2018-04-25T08:57:58.088Z,20.10
2018-04-25T09:00:24.320Z,20.10
2018-04-25T09:02:50.590Z,20.10
2018-04-25T09:05:16.827Z,20.10
2018-04-25T09:07:43.677Z,20.10
2018-04-25T09:10:09.893Z,20.10
2018-04-25T09:12:36.109Z,20.10
2018-04-25T09:15:02.384Z,20.10
2018-04-25T09:17:28.614Z,20.10
2018-04-25T09:19:54.852Z,20.10
2018-04-25T09:22:21.092Z,20.10
2018-04-25T09:24:47.331Z,20.10
2018-04-25T09:27:13.581Z,20.10
2018-04-25T09:29:39.791Z,20.10
2018-04-25T09:32:06.013Z,20.10
2018-04-25T09:34:32.306Z,20.10
2018-04-25T09:36:58.474Z,20.10
2018-04-25T09:39:24.749Z,20.10
2018-04-25T09:41:51.003Z,20.10
2018-04-25T09:44:17.217Z,20.10
2018-04-25T09:46:43.464Z,20.10
2018-04-25T09:49:10.012Z,20.10
2018-04-25T09:51:36.393Z,20.10
2018-04-25T09:54:03.387Z,20.10
2018-04-25T09:56:29.624Z,20.10
2018-04-25T09:58:55.848Z,20.10
2018-04-25T10:01:22.057Z,20.10
2018-04-25T10:03:48.309Z,20.10
2018-04-25T10:06:14.521Z,20.10
2018-04-25T10:08:40.764Z,20.10
2018-04-25T10:11:06.973Z,20.10
2018-04-25T10:13:33.204Z,20.10
2018-04-25T10:15:59.423Z,20.10
2018-04-25T10:18:25.659Z,20.10
2018-04-25T10:20:51.876Z,20.10
2018-04-25T10:23:18.120Z,20.10
2018-04-25T10:25:44.586Z,20.10
2018-04-25T10:28:10.767Z,20.10
2018-04-25T10:30:36.974Z,20.10
2018-04-25T10:33:04.005Z,20.10
2018-04-25T10:35:30.232Z,20.10
2018-04-25T10:37:56.454Z,20.10
2018-04-25T10:40:22.750Z,20.10
2018-04-25T10:42:48.959Z,20.10
2018-04-25T10:45:15.247Z,20.10
2018-04-25T10:47:41.497Z,20.10
2018-04-25T10:50:07.736Z,20.10
2018-04-25T10:52:33.977Z,20.20
2018-04-25T10:55:00.244Z,20.20
2018-04-25T10:57:26.457Z,20.20
2018-04-25T10:59:52.676Z,20.20
2018-04-25T11:02:18.965Z,20.20
2018-04-25T11:04:45.177Z,20.20
2018-04-25T11:07:11.423Z,20.20
2018-04-25T11:09:37.768Z,20.30
2018-04-25T11:12:03.981Z,20.30
2018-04-25T11:14:31.023Z,20.20
2018-04-25T11:16:57.248Z,20.30
2018-04-25T11:19:23.469Z,20.20
2018-04-25T11:21:49.703Z,20.20
2018-04-25T11:24:15.989Z,20.20
2018-04-25T11:26:42.339Z,20.20
2018-04-25T11:29:08.497Z,20.20
2018-04-25T11:31:34.708Z,20.20
2018-04-25T11:34:00.944Z,20.20
2018-04-25T11:36:27.177Z,20.30
2018-04-25T11:38:53.417Z,20.30
2018-04-25T11:41:19.649Z,20.20
2018-04-25T11:43:45.880Z,20.30
2018-04-25T11:46:12.119Z,20.30
2018-04-25T11:48:38.333Z,20.30
2018-04-25T11:51:04.604Z,20.30
2018-04-25T11:53:30.812Z,20.30
2018-04-25T11:55:57.052Z,20.30
2018-04-25T11:58:23.288Z,20.40
2018-04-25T12:00:49.690Z,20.40
2018-04-25T12:03:16.866Z,20.50
2018-04-25T12:05:43.098Z,20.50
2018-04-25T12:08:09.351Z,20.50
2018-04-25T12:10:36.315Z,20.50
2018-04-25T12:13:02.542Z,20.50
2018-04-25T12:15:28.829Z,20.50
2018-04-25T12:17:55.049Z,20.50
2018-04-25T12:20:21.334Z,20.50
2018-04-25T12:22:47.561Z,20.50
2018-04-25T12:25:13.801Z,20.60
2018-04-25T12:27:40.061Z,20.60
2018-04-25T12:30:06.278Z,20.50
2018-04-25T12:32:32.510Z,20.50
2018-04-25T12:34:58.929Z,20.60
2018-04-25T12:37:25.921Z,20.60
2018-04-25T12:39:52.242Z,20.50
2018-04-25T12:42:18.460Z,20.50
2018-04-25T12:44:44.717Z,20.50
2018-04-25T12:47:10.964Z,20.60
2018-04-25T12:49:37.210Z,20.60
2018-04-25T12:52:03.452Z,20.60
2018-04-25T12:54:29.680Z,20.60
2018-04-25T12:56:55.920Z,20.60
2018-04-25T12:59:22.883Z,20.60
2018-04-25T13:01:49.116Z,20.60
2018-04-25T13:04:15.409Z,20.60
2018-04-25T13:06:41.652Z,20.60
2018-04-25T13:09:07.890Z,20.50
2018-04-25T13:11:34.127Z,20.50
2018-04-25T13:14:01.097Z,20.50
2018-04-25T13:16:27.416Z,20.40
2018-04-25T13:18:53.637Z,20.50
2018-04-25T13:21:19.940Z,20.40
2018-04-25T13:23:46.112Z,20.50
2018-04-25T13:26:12.347Z,20.40
2018-04-25T13:28:38.637Z,20.40
2018-04-25T13:31:04.853Z,20.40
2018-04-25T13:33:31.080Z,20.40
2018-04-25T13:35:57.304Z,20.40
2018-04-25T13:38:23.540Z,20.40
2018-04-25T13:40:49.808Z,20.40
2018-04-25T13:43:16.789Z,20.40
2018-04-25T13:45:43.044Z,20.40
2018-04-25T13:48:09.276Z,20.40
2018-04-25T13:50:35.689Z,20.40
2018-04-25T13:53:01.964Z,20.40
2018-04-25T13:55:28.194Z,20.50
2018-04-25T13:57:54.441Z,20.40
2018-04-25T14:00:20.667Z,20.50
2018-04-25T14:02:46.915Z,20.50
2018-04-25T14:05:13.192Z,20.50
2018-04-25T14:07:39.786Z,20.60
2018-04-25T14:10:06.287Z,20.60
2018-04-25T14:12:32.505Z,20.60
2018-04-25T14:14:58.743Z,20.60
2018-04-25T14:17:25.780Z,20.60
2018-04-25T14:19:52.790Z,20.60
2018-04-25T14:22:19.012Z,20.60
2018-04-25T14:24:45.265Z,20.60
2018-04-25T14:27:11.536Z,20.60
2018-04-25T14:29:37.801Z,20.50
2018-04-25T14:32:04.018Z,20.50
2018-04-25T14:34:30.273Z,20.50
2018-04-25T14:36:56.542Z,20.50
2018-04-25T14:39:22.763Z,20.50
2018-04-25T14:41:49.040Z,20.50
2018-04-25T14:44:15.254Z,20.50
2018-04-25T14:46:41.484Z,20.40
2018-04-25T14:49:07.741Z,20.50
2018-04-25T14:51:33.958Z,20.50
2018-04-25T14:54:00.818Z,20.40
2018-04-25T14:56:27.032Z,20.40
2018-04-25T14:58:53.272Z,20.50
2018-04-25T15:01:19.507Z,20.40
2018-04-25T15:03:45.755Z,20.40
2018-04-25T15:06:12.047Z,20.40
2018-04-25T15:08:38.283Z,20.40
2018-04-25T15:11:04.520Z,20.40
2018-04-25T15:13:30.751Z,20.40
2018-04-25T15:15:56.996Z,20.30
2018-04-25T15:18:23.237Z,20.30
2018-04-25T15:20:49.460Z,20.30
2018-04-25T15:23:15.677Z,20.30
2018-04-25T15:25:41.897Z,20.30
2018-04-25T15:28:08.142Z,20.30
2018-04-25T15:30:34.405Z,20.30
2018-04-25T15:33:00.636Z,20.40
2018-04-25T15:35:26.848Z,20.40
2018-04-25T15:37:53.127Z,20.40
2018-04-25T15:40:19.304Z,20.50
2018-04-25T15:42:45.549Z,20.50
2018-04-25T15:45:11.773Z,20.50
2018-04-25T15:47:38.752Z,20.50
2018-04-25T15:50:04.997Z,20.40
2018-04-25T15:52:31.236Z,20.40
2018-04-25T15:54:57.502Z,20.40
2018-04-25T15:57:23.720Z,20.40
2018-04-25T15:59:49.959Z,20.40
2018-04-25T16:02:16.174Z,20.40
2018-04-25T16:04:42.408Z,20.30
2018-04-25T16:07:08.684Z,20.30
2018-04-25T16:09:34.924Z,20.30
2018-04-25T16:12:01.167Z,20.40
2018-04-25T16:14:27.398Z,20.40
2018-04-25T16:16:53.608Z,20.40
2018-04-25T16:19:19.873Z,20.30
2018-04-25T16:21:46.116Z,20.30
2018-04-25T16:24:12.336Z,20.30
2018-04-25T16:26:39.340Z,20.30
2018-04-25T16:29:05.562Z,20.30
2018-04-25T16:31:31.838Z,20.30
2018-04-25T16:33:58.073Z,20.30
2018-04-25T16:36:24.315Z,20.30
2018-04-25T16:38:50.787Z,20.40
2018-04-25T16:41:17.028Z,20.40
2018-04-25T16:43:43.285Z,20.40
2018-04-25T16:46:09.505Z,20.40
2018-04-25T16:48:35.733Z,20.30
2018-04-25T16:51:02.605Z,20.40
2018-04-25T16:53:28.826Z,20.40
2018-04-25T16:55:55.117Z,20.30
2018-04-25T16:58:21.329Z,20.40
2018-04-25T17:00:47.558Z,20.50
2018-04-25T17:03:14.531Z,20.60
2018-04-25T17:05:40.775Z,20.60
2018-04-25T17:08:07.104Z,20.60
2018-04-25T17:10:33.296Z,20.60
2018-04-25T17:13:00.120Z,20.60
2018-04-25T17:15:26.361Z,20.60
2018-04-25T17:17:52.588Z,20.60
2018-04-25T17:20:19.172Z,20.60
2018-04-25T17:22:45.413Z,20.60
2018-04-25T17:25:11.643Z,20.50
2018-04-25T17:27:37.863Z,20.50
2018-04-25T17:30:04.090Z,20.40
2018-04-25T17:32:30.338Z,20.40
2018-04-25T17:34:56.603Z,20.30
2018-04-25T17:37:22.852Z,20.30
2018-04-25T17:39:49.088Z,20.30
2018-04-25T17:42:15.356Z,20.40
2018-04-25T17:44:41.788Z,20.40
2018-04-25T17:47:08.013Z,20.30
2018-04-25T17:49:34.265Z,20.40
2018-04-25T17:52:00.485Z,20.30
2018-04-25T17:54:26.761Z,20.30
2018-04-25T17:56:53.025Z,20.30
2018-04-25T17:59:19.291Z,20.30
2018-04-25T18:01:45.525Z,20.30
2018-04-25T18:04:11.772Z,20.30
2018-04-25T18:06:38.341Z,20.20
2018-04-25T18:09:04.613Z,20.20
2018-04-25T18:11:30.967Z,20.20
2018-04-25T18:13:57.133Z,20.30
2018-04-25T18:16:23.367Z,20.30
2018-04-25T18:18:49.606Z,20.30
2018-04-25T18:21:15.924Z,20.20
2018-04-25T18:23:42.176Z,20.20
2018-04-25T18:26:08.397Z,20.30
2018-04-25T18:28:34.622Z,20.30
2018-04-25T18:31:00.837Z,20.30
2018-04-25T18:33:27.125Z,20.20
2018-04-25T18:35:53.360Z,20.20
2018-04-25T18:38:19.608Z,20.20
2018-04-25T18:40:45.826Z,20.20
2018-04-25T18:43:12.060Z,20.30
2018-04-25T18:45:38.335Z,20.30
2018-04-25T18:48:04.866Z,20.40
2018-04-25T18:50:31.139Z,20.40
2018-04-25T18:52:57.386Z,20.50
2018-04-25T18:55:24.337Z,20.40
2018-04-25T18:57:51.073Z,20.40
2018-04-25T19:00:17.513Z,20.50
2018-04-25T19:02:43.758Z,20.40
2018-04-25T19:05:10.009Z,20.50
2018-04-25T19:07:36.524Z,20.50
2018-04-25T19:10:02.864Z,20.50
2018-04-25T19:12:29.047Z,20.50
2018-04-25T19:14:55.259Z,20.50
2018-04-25T19:17:21.474Z,20.50
2018-04-25T19:19:47.710Z,20.50
